sensor_id;sensor_type;location;lat;lon;timestamp;pressure;altitude;pressure_sealevel;temperature;humidity
3654;BME280;70277;54.302;10.064;2023-06-24T00:02:17;102070.44;;;14.56;71.40
3654;BME280;70277;54.302;10.064;2023-06-24T00:04:43;102058.47;;;14.46;72.49
3654;BME280;70277;54.302;10.064;2023-06-24T00:07:10;102055.91;;;14.39;72.13
3654;BME280;70277;54.302;10.064;2023-06-24T00:09:37;102057.22;;;14.37;71.88
3654;BME280;70277;54.302;10.064;2023-06-24T00:12:04;102060.53;;;14.39;71.65
3654;BME280;70277;54.302;10.064;2023-06-24T00:14:30;102062.00;;;14.29;74.49
3654;BME280;70277;54.302;10.064;2023-06-24T00:16:57;102068.41;;;14.23;73.09
3654;BME280;70277;54.302;10.064;2023-06-24T00:19:25;102063.19;;;14.22;72.98
3654;BME280;70277;54.302;10.064;2023-06-24T00:21:53;102071.63;;;14.08;73.97
3654;BME280;70277;54.302;10.064;2023-06-24T00:24:20;102069.97;;;14.07;74.57
3654;BME280;70277;54.302;10.064;2023-06-24T00:26:49;102061.44;;;14.04;73.90
3654;BME280;70277;54.302;10.064;2023-06-24T00:29:16;102056.47;;;14.13;73.50
3654;BME280;70277;54.302;10.064;2023-06-24T00:31:42;102054.56;;;14.13;73.29
3654;BME280;70277;54.302;10.064;2023-06-24T00:34:09;102061.56;;;14.09;73.59
3654;BME280;70277;54.302;10.064;2023-06-24T00:36:35;102059.94;;;14.08;73.86
3654;BME280;70277;54.302;10.064;2023-06-24T00:39:02;102063.00;;;14.00;74.06
3654;BME280;70277;54.302;10.064;2023-06-24T00:41:31;102063.16;;;13.93;74.77
3654;BME280;70277;54.302;10.064;2023-06-24T00:43:57;102064.44;;;13.91;74.51
3654;BME280;70277;54.302;10.064;2023-06-24T00:46:25;102074.13;;;13.86;73.33
3654;BME280;70277;54.302;10.064;2023-06-24T00:48:52;102074.63;;;13.83;73.96
3654;BME280;70277;54.302;10.064;2023-06-24T00:51:19;102074.13;;;13.86;73.91
3654;BME280;70277;54.302;10.064;2023-06-24T00:53:47;102075.22;;;13.74;74.15
3654;BME280;70277;54.302;10.064;2023-06-24T00:56:17;102079.50;;;13.70;74.78
3654;BME280;70277;54.302;10.064;2023-06-24T00:58:45;102073.09;;;13.64;74.76
3654;BME280;70277;54.302;10.064;2023-06-24T01:01:14;102077.69;;;13.63;74.80
3654;BME280;70277;54.302;10.064;2023-06-24T01:03:41;102076.78;;;13.70;75.20
3654;BME280;70277;54.302;10.064;2023-06-24T01:06:08;102081.84;;;13.78;75.92
3654;BME280;70277;54.302;10.064;2023-06-24T01:08:35;102085.97;;;13.80;75.87
3654;BME280;70277;54.302;10.064;2023-06-24T01:11:02;102087.75;;;13.75;75.37
3654;BME280;70277;54.302;10.064;2023-06-24T01:13:28;102086.31;;;13.72;76.00
3654;BME280;70277;54.302;10.064;2023-06-24T01:15:55;102088.00;;;13.73;75.69
3654;BME280;70277;54.302;10.064;2023-06-24T01:18:35;102098.75;;;13.68;75.37
3654;BME280;70277;54.302;10.064;2023-06-24T01:32:14;102099.91;;;13.49;75.46
3654;BME280;70277;54.302;10.064;2023-06-24T01:34:48;102098.97;;;13.31;75.80
3654;BME280;70277;54.302;10.064;2023-06-24T01:37:41;102101.44;;;13.33;75.47
3654;BME280;70277;54.302;10.064;2023-06-24T01:40:15;102100.50;;;13.39;76.58
3654;BME280;70277;54.302;10.064;2023-06-24T01:42:46;102102.88;;;13.35;76.94
3654;BME280;70277;54.302;10.064;2023-06-24T01:45:16;102102.28;;;13.33;77.36
3654;BME280;70277;54.302;10.064;2023-06-24T01:47:47;102098.13;;;13.31;77.30
3654;BME280;70277;54.302;10.064;2023-06-24T01:50:16;102105.38;;;13.37;77.20
3654;BME280;70277;54.302;10.064;2023-06-24T01:52:46;102095.66;;;13.29;77.91
3654;BME280;70277;54.302;10.064;2023-06-24T01:55:17;102097.22;;;13.37;77.70
3654;BME280;70277;54.302;10.064;2023-06-24T01:57:45;102102.00;;;13.23;78.37
3654;BME280;70277;54.302;10.064;2023-06-24T02:00:12;102105.28;;;13.13;78.87
3654;BME280;70277;54.302;10.064;2023-06-24T02:02:40;102104.13;;;13.21;78.05
3654;BME280;70277;54.302;10.064;2023-06-24T02:05:08;102105.88;;;13.15;78.32
3654;BME280;70277;54.302;10.064;2023-06-24T02:07:36;102103.91;;;13.23;78.61
3654;BME280;70277;54.302;10.064;2023-06-24T02:10:05;102109.09;;;13.24;78.60
3654;BME280;70277;54.302;10.064;2023-06-24T02:12:33;102107.91;;;13.20;78.34
3654;BME280;70277;54.302;10.064;2023-06-24T02:15:01;102102.94;;;13.17;78.77
3654;BME280;70277;54.302;10.064;2023-06-24T02:17:28;102104.09;;;13.09;79.05
3654;BME280;70277;54.302;10.064;2023-06-24T02:19:57;102101.00;;;13.06;78.48
3654;BME280;70277;54.302;10.064;2023-06-24T02:22:24;102106.59;;;13.11;78.53
3654;BME280;70277;54.302;10.064;2023-06-24T02:24:52;102107.63;;;13.10;78.95
3654;BME280;70277;54.302;10.064;2023-06-24T02:27:19;102100.69;;;13.14;78.32
3654;BME280;70277;54.302;10.064;2023-06-24T02:29:47;102102.19;;;13.10;78.82
3654;BME280;70277;54.302;10.064;2023-06-24T02:32:14;102107.50;;;13.05;78.59
3654;BME280;70277;54.302;10.064;2023-06-24T02:34:40;102115.00;;;13.21;78.30
3654;BME280;70277;54.302;10.064;2023-06-24T02:37:07;102112.38;;;13.14;78.27
3654;BME280;70277;54.302;10.064;2023-06-24T02:39:33;102097.22;;;13.07;78.60
3654;BME280;70277;54.302;10.064;2023-06-24T02:41:59;102094.97;;;13.04;79.07
3654;BME280;70277;54.302;10.064;2023-06-24T02:44:26;102107.06;;;13.08;78.58
3654;BME280;70277;54.302;10.064;2023-06-24T02:46:53;102097.22;;;13.07;78.39
3654;BME280;70277;54.302;10.064;2023-06-24T02:49:22;102111.53;;;13.02;78.22
3654;BME280;70277;54.302;10.064;2023-06-24T02:51:48;102108.91;;;13.07;78.27
3654;BME280;70277;54.302;10.064;2023-06-24T02:54:15;102110.25;;;13.16;77.38
3654;BME280;70277;54.302;10.064;2023-06-24T02:56:42;102113.53;;;13.07;78.37
3654;BME280;70277;54.302;10.064;2023-06-24T02:59:10;102114.34;;;13.07;77.87
3654;BME280;70277;54.302;10.064;2023-06-24T03:01:38;102102.19;;;13.10;77.49
3654;BME280;70277;54.302;10.064;2023-06-24T03:04:11;102108.47;;;13.10;76.25
3654;BME280;70277;54.302;10.064;2023-06-24T03:06:39;102115.06;;;13.03;75.20
3654;BME280;70277;54.302;10.064;2023-06-24T03:09:06;102103.47;;;12.95;74.69
3654;BME280;70277;54.302;10.064;2023-06-24T03:11:40;102119.63;;;12.90;75.08
3654;BME280;70277;54.302;10.064;2023-06-24T03:14:08;102130.03;;;12.93;75.60
3654;BME280;70277;54.302;10.064;2023-06-24T03:16:34;102118.88;;;12.83;76.81
3654;BME280;70277;54.302;10.064;2023-06-24T03:19:01;102122.81;;;12.87;76.84
3654;BME280;70277;54.302;10.064;2023-06-24T03:21:28;102123.78;;;12.93;76.77
3654;BME280;70277;54.302;10.064;2023-06-24T03:23:55;102133.47;;;13.01;76.17
3654;BME280;70277;54.302;10.064;2023-06-24T03:26:22;102134.91;;;13.03;76.11
3654;BME280;70277;54.302;10.064;2023-06-24T03:28:48;102133.59;;;12.94;76.05
3654;BME280;70277;54.302;10.064;2023-06-24T03:31:15;102132.84;;;12.87;76.05
3654;BME280;70277;54.302;10.064;2023-06-24T03:33:44;102130.59;;;12.84;75.04
3654;BME280;70277;54.302;10.064;2023-06-24T03:36:11;102133.53;;;12.82;76.04
3654;BME280;70277;54.302;10.064;2023-06-24T03:38:39;102137.13;;;12.94;75.36
3654;BME280;70277;54.302;10.064;2023-06-24T03:41:05;102140.81;;;13.00;75.44
3654;BME280;70277;54.302;10.064;2023-06-24T03:43:32;102131.50;;;13.08;75.23
3654;BME280;70277;54.302;10.064;2023-06-24T03:45:58;102144.28;;;13.19;75.82
3654;BME280;70277;54.302;10.064;2023-06-24T03:48:27;102148.44;;;13.21;75.83
3654;BME280;70277;54.302;10.064;2023-06-24T03:50:53;102147.78;;;13.26;74.93
3654;BME280;70277;54.302;10.064;2023-06-24T03:53:20;102162.09;;;13.33;75.04
3654;BME280;70277;54.302;10.064;2023-06-24T03:55:46;102160.44;;;13.32;75.74
3654;BME280;70277;54.302;10.064;2023-06-24T03:58:13;102154.06;;;13.38;75.05
3654;BME280;70277;54.302;10.064;2023-06-24T04:00:40;102147.84;;;13.50;75.06
3654;BME280;70277;54.302;10.064;2023-06-24T04:03:07;102148.88;;;13.49;74.33
3654;BME280;70277;54.302;10.064;2023-06-24T04:05:34;102141.31;;;13.51;73.73
3654;BME280;70277;54.302;10.064;2023-06-24T04:08:01;102138.72;;;13.56;74.61
3654;BME280;70277;54.302;10.064;2023-06-24T04:10:31;102139.09;;;13.59;74.86
3654;BME280;70277;54.302;10.064;2023-06-24T04:12:57;102138.97;;;13.66;75.57
3654;BME280;70277;54.302;10.064;2023-06-24T04:15:24;102145.00;;;13.80;75.82
3654;BME280;70277;54.302;10.064;2023-06-24T04:17:50;102144.78;;;13.93;75.44
3654;BME280;70277;54.302;10.064;2023-06-24T04:20:16;102134.72;;;14.05;75.47
3654;BME280;70277;54.302;10.064;2023-06-24T04:22:43;102150.31;;;14.10;75.63
3654;BME280;70277;54.302;10.064;2023-06-24T04:25:09;102147.72;;;14.15;75.37
3654;BME280;70277;54.302;10.064;2023-06-24T04:27:36;102144.53;;;14.18;74.76
3654;BME280;70277;54.302;10.064;2023-06-24T04:30:03;102143.94;;;14.16;75.02
3654;BME280;70277;54.302;10.064;2023-06-24T04:32:30;102152.00;;;14.11;75.58
3654;BME280;70277;54.302;10.064;2023-06-24T04:34:58;102148.53;;;14.27;76.26
3654;BME280;70277;54.302;10.064;2023-06-24T04:37:25;102147.22;;;14.42;75.92
3654;BME280;70277;54.302;10.064;2023-06-24T04:39:51;102148.75;;;14.61;74.81
3654;BME280;70277;54.302;10.064;2023-06-24T04:42:18;102158.38;;;14.81;74.74
3654;BME280;70277;54.302;10.064;2023-06-24T04:44:44;102150.59;;;15.01;74.13
3654;BME280;70277;54.302;10.064;2023-06-24T04:47:11;102155.16;;;15.12;73.81
3654;BME280;70277;54.302;10.064;2023-06-24T04:49:40;102156.03;;;15.01;74.28
3654;BME280;70277;54.302;10.064;2023-06-24T04:52:06;102156.53;;;14.98;74.89
3654;BME280;70277;54.302;10.064;2023-06-24T04:54:33;102152.94;;;15.09;74.21
3654;BME280;70277;54.302;10.064;2023-06-24T04:56:59;102146.00;;;15.18;74.28
3654;BME280;70277;54.302;10.064;2023-06-24T04:59:26;102153.84;;;15.32;74.00
3654;BME280;70277;54.302;10.064;2023-06-24T05:01:52;102147.28;;;15.44;73.80
3654;BME280;70277;54.302;10.064;2023-06-24T05:04:19;102146.50;;;15.49;73.78
3654;BME280;70277;54.302;10.064;2023-06-24T05:06:45;102148.84;;;15.57;73.37
3654;BME280;70277;54.302;10.064;2023-06-24T05:09:12;102147.19;;;15.56;72.95
3654;BME280;70277;54.302;10.064;2023-06-24T05:11:40;102144.09;;;15.53;73.81
3654;BME280;70277;54.302;10.064;2023-06-24T05:14:07;102147.56;;;15.77;73.67
3654;BME280;70277;54.302;10.064;2023-06-24T05:16:34;102148.09;;;15.79;72.77
3654;BME280;70277;54.302;10.064;2023-06-24T05:19:00;102157.38;;;15.78;73.44
3654;BME280;70277;54.302;10.064;2023-06-24T05:21:26;102156.97;;;15.86;72.61
3654;BME280;70277;54.302;10.064;2023-06-24T05:23:53;102162.75;;;15.89;72.50
3654;BME280;70277;54.302;10.064;2023-06-24T05:26:19;102154.09;;;16.14;71.83
3654;BME280;70277;54.302;10.064;2023-06-24T05:28:46;102164.09;;;16.26;70.80
3654;BME280;70277;54.302;10.064;2023-06-24T05:31:12;102158.69;;;16.31;71.25
3654;BME280;70277;54.302;10.064;2023-06-24T05:33:39;102159.41;;;16.21;70.66
3654;BME280;70277;54.302;10.064;2023-06-24T05:36:05;102156.03;;;16.36;70.83
3654;BME280;70277;54.302;10.064;2023-06-24T05:38:32;102162.31;;;16.36;70.86
3654;BME280;70277;54.302;10.064;2023-06-24T05:40:58;102168.38;;;16.60;70.40
3654;BME280;70277;54.302;10.064;2023-06-24T05:43:27;102166.31;;;16.73;70.08
3654;BME280;70277;54.302;10.064;2023-06-24T05:45:53;102167.31;;;16.83;69.35
3654;BME280;70277;54.302;10.064;2023-06-24T05:48:20;102175.34;;;16.73;69.44
3654;BME280;70277;54.302;10.064;2023-06-24T05:50:46;102176.44;;;16.72;69.78
3654;BME280;70277;54.302;10.064;2023-06-24T05:53:13;102173.75;;;16.99;69.21
3654;BME280;70277;54.302;10.064;2023-06-24T05:55:39;102176.03;;;17.08;68.17
3654;BME280;70277;54.302;10.064;2023-06-24T05:58:05;102170.88;;;17.11;68.83
3654;BME280;70277;54.302;10.064;2023-06-24T06:00:32;102177.53;;;17.20;67.25
3654;BME280;70277;54.302;10.064;2023-06-24T06:02:58;102174.84;;;17.25;67.62
3654;BME280;70277;54.302;10.064;2023-06-24T06:05:25;102180.94;;;17.05;67.67
3654;BME280;70277;54.302;10.064;2023-06-24T06:07:52;102189.66;;;17.02;68.02
3654;BME280;70277;54.302;10.064;2023-06-24T06:10:19;102193.72;;;17.27;67.67
3654;BME280;70277;54.302;10.064;2023-06-24T06:12:47;102193.13;;;17.79;65.47
3654;BME280;70277;54.302;10.064;2023-06-24T06:15:14;102196.53;;;17.96;64.29
3654;BME280;70277;54.302;10.064;2023-06-24T06:17:40;102190.00;;;18.03;64.41
3654;BME280;70277;54.302;10.064;2023-06-24T06:20:07;102200.03;;;17.87;64.37
3654;BME280;70277;54.302;10.064;2023-06-24T06:22:34;102195.38;;;17.87;64.23
3654;BME280;70277;54.302;10.064;2023-06-24T06:25:07;102187.59;;;18.11;63.90
3654;BME280;70277;54.302;10.064;2023-06-24T06:27:33;102181.97;;;18.28;63.64
3654;BME280;70277;54.302;10.064;2023-06-24T06:30:00;102183.13;;;18.48;63.12
3654;BME280;70277;54.302;10.064;2023-06-24T06:32:26;102188.03;;;19.03;62.33
3654;BME280;70277;54.302;10.064;2023-06-24T06:34:56;102188.88;;;19.24;61.25
3654;BME280;70277;54.302;10.064;2023-06-24T06:37:22;102183.69;;;19.38;60.58
3654;BME280;70277;54.302;10.064;2023-06-24T06:39:48;102191.88;;;19.13;60.95
3654;BME280;70277;54.302;10.064;2023-06-24T06:42:15;102193.41;;;18.73;61.65
3654;BME280;70277;54.302;10.064;2023-06-24T06:44:42;102182.53;;;19.03;61.70
3654;BME280;70277;54.302;10.064;2023-06-24T06:47:09;102174.56;;;18.92;61.41
3654;BME280;70277;54.302;10.064;2023-06-24T06:49:36;102183.94;;;19.21;60.77
3654;BME280;70277;54.302;10.064;2023-06-24T06:52:02;102183.16;;;19.51;60.20
3654;BME280;70277;54.302;10.064;2023-06-24T06:54:29;102184.00;;;19.83;58.97
3654;BME280;70277;54.302;10.064;2023-06-24T06:57:02;102180.06;;;20.30;58.10
3654;BME280;70277;54.302;10.064;2023-06-24T06:59:30;102180.59;;;20.97;56.64
3654;BME280;70277;54.302;10.064;2023-06-24T07:01:57;102183.13;;;21.38;54.28
3654;BME280;70277;54.302;10.064;2023-06-24T07:04:23;102181.16;;;20.99;55.35
3654;BME280;70277;54.302;10.064;2023-06-24T07:06:50;102187.59;;;20.79;55.79
3654;BME280;70277;54.302;10.064;2023-06-24T07:09:18;102191.59;;;21.02;55.58
3654;BME280;70277;54.302;10.064;2023-06-24T07:11:44;102190.38;;;20.74;56.94
3654;BME280;70277;54.302;10.064;2023-06-24T07:14:11;102185.84;;;20.28;57.64
3654;BME280;70277;54.302;10.064;2023-06-24T07:16:37;102190.44;;;20.48;57.55
3654;BME280;70277;54.302;10.064;2023-06-24T07:19:04;102196.44;;;20.71;56.17
3654;BME280;70277;54.302;10.064;2023-06-24T07:21:30;102197.81;;;21.18;53.98
3654;BME280;70277;54.302;10.064;2023-06-24T07:23:57;102193.50;;;21.51;52.97
3654;BME280;70277;54.302;10.064;2023-06-24T07:26:24;102197.00;;;21.17;54.23
3654;BME280;70277;54.302;10.064;2023-06-24T07:28:50;102193.19;;;21.13;55.27
3654;BME280;70277;54.302;10.064;2023-06-24T07:31:35;102193.78;;;21.00;54.32
3654;BME280;70277;54.302;10.064;2023-06-24T07:34:01;102200.19;;;20.90;53.89
3654;BME280;70277;54.302;10.064;2023-06-24T07:36:28;102205.72;;;20.85;55.25
3654;BME280;70277;54.302;10.064;2023-06-24T07:38:54;102204.41;;;20.77;54.84
3654;BME280;70277;54.302;10.064;2023-06-24T07:41:21;102199.38;;;20.84;54.66
3654;BME280;70277;54.302;10.064;2023-06-24T07:43:47;102195.97;;;21.81;52.78
3654;BME280;70277;54.302;10.064;2023-06-24T07:46:14;102195.41;;;22.62;50.76
3654;BME280;70277;54.302;10.064;2023-06-24T07:48:41;102190.31;;;23.50;47.21
3654;BME280;70277;54.302;10.064;2023-06-24T07:51:07;102192.66;;;23.43;44.50
3654;BME280;70277;54.302;10.064;2023-06-24T07:53:35;102192.59;;;23.61;45.23
3654;BME280;70277;54.302;10.064;2023-06-24T07:56:01;102183.47;;;23.28;45.88
3654;BME280;70277;54.302;10.064;2023-06-24T07:58:28;102183.41;;;22.53;46.81
3654;BME280;70277;54.302;10.064;2023-06-24T08:00:54;102192.22;;;21.33;51.17
3654;BME280;70277;54.302;10.064;2023-06-24T08:03:21;102184.16;;;22.58;47.62
3654;BME280;70277;54.302;10.064;2023-06-24T08:05:48;102183.03;;;23.21;46.09
3654;BME280;70277;54.302;10.064;2023-06-24T08:08:16;102179.41;;;23.39;46.14
3654;BME280;70277;54.302;10.064;2023-06-24T08:10:44;102186.38;;;23.18;46.15
3654;BME280;70277;54.302;10.064;2023-06-24T08:13:11;102195.56;;;22.94;46.69
3654;BME280;70277;54.302;10.064;2023-06-24T08:15:37;102201.66;;;21.95;48.43
3654;BME280;70277;54.302;10.064;2023-06-24T08:18:07;102195.25;;;22.29;48.36
3654;BME280;70277;54.302;10.064;2023-06-24T08:20:34;102200.31;;;22.46;48.35
3654;BME280;70277;54.302;10.064;2023-06-24T08:23:00;102204.63;;;21.70;49.89
3654;BME280;70277;54.302;10.064;2023-06-24T08:25:27;102201.06;;;21.98;49.23
3654;BME280;70277;54.302;10.064;2023-06-24T08:27:53;102206.22;;;21.76;49.21
3654;BME280;70277;54.302;10.064;2023-06-24T08:30:20;102205.22;;;21.67;49.41
3654;BME280;70277;54.302;10.064;2023-06-24T08:32:46;102203.75;;;22.57;47.77
3654;BME280;70277;54.302;10.064;2023-06-24T08:35:13;102211.72;;;22.82;46.83
3654;BME280;70277;54.302;10.064;2023-06-24T08:37:39;102194.50;;;22.90;46.82
3654;BME280;70277;54.302;10.064;2023-06-24T08:40:06;102199.94;;;22.53;47.11
3654;BME280;70277;54.302;10.064;2023-06-24T08:42:33;102201.16;;;22.65;47.36
3654;BME280;70277;54.302;10.064;2023-06-24T08:44:59;102215.41;;;22.97;46.84
3654;BME280;70277;54.302;10.064;2023-06-24T08:47:27;102209.03;;;24.18;44.73
3654;BME280;70277;54.302;10.064;2023-06-24T08:50:02;102208.50;;;24.99;41.31
3654;BME280;70277;54.302;10.064;2023-06-24T08:52:32;102201.38;;;24.57;42.40
3654;BME280;70277;54.302;10.064;2023-06-24T08:55:01;102201.31;;;24.98;40.77
3654;BME280;70277;54.302;10.064;2023-06-24T08:57:27;102199.53;;;24.38;42.24
3654;BME280;70277;54.302;10.064;2023-06-24T08:59:54;102208.72;;;24.89;40.97
3654;BME280;70277;54.302;10.064;2023-06-24T09:02:21;102219.16;;;25.42;39.60
3654;BME280;70277;54.302;10.064;2023-06-24T09:04:47;102206.94;;;25.88;38.76
3654;BME280;70277;54.302;10.064;2023-06-24T09:07:25;102201.50;;;25.15;39.40
3654;BME280;70277;54.302;10.064;2023-06-24T09:09:52;102203.41;;;25.74;39.45
3654;BME280;70277;54.302;10.064;2023-06-24T09:12:18;102208.44;;;25.72;39.25
3654;BME280;70277;54.302;10.064;2023-06-24T09:14:49;102196.84;;;26.72;37.78
3654;BME280;70277;54.302;10.064;2023-06-24T09:17:16;102190.97;;;26.25;37.80
3654;BME280;70277;54.302;10.064;2023-06-24T09:19:43;102192.75;;;26.21;38.35
3654;BME280;70277;54.302;10.064;2023-06-24T09:22:10;102186.03;;;25.59;39.33
3654;BME280;70277;54.302;10.064;2023-06-24T09:24:46;102194.09;;;25.25;39.99
3654;BME280;70277;54.302;10.064;2023-06-24T09:27:14;102188.97;;;25.40;40.25
3654;BME280;70277;54.302;10.064;2023-06-24T09:29:42;102186.53;;;25.84;39.26
3654;BME280;70277;54.302;10.064;2023-06-24T09:32:09;102176.44;;;26.85;37.16
3654;BME280;70277;54.302;10.064;2023-06-24T09:34:36;102185.31;;;25.99;38.01
3654;BME280;70277;54.302;10.064;2023-06-24T09:37:03;102177.38;;;26.15;38.85
3654;BME280;70277;54.302;10.064;2023-06-24T09:39:36;102163.59;;;27.15;37.48
3654;BME280;70277;54.302;10.064;2023-06-24T09:42:04;102164.84;;;27.09;37.14
3654;BME280;70277;54.302;10.064;2023-06-24T09:44:31;102170.25;;;27.14;37.06
3654;BME280;70277;54.302;10.064;2023-06-24T09:46:58;102167.88;;;27.86;35.27
3654;BME280;70277;54.302;10.064;2023-06-24T09:49:24;102161.84;;;27.75;36.32
3654;BME280;70277;54.302;10.064;2023-06-24T09:51:56;102161.63;;;27.98;36.15
3654;BME280;70277;54.302;10.064;2023-06-24T09:54:27;102162.75;;;27.15;36.89
3654;BME280;70277;54.302;10.064;2023-06-24T09:57:02;102162.75;;;26.89;37.46
3654;BME280;70277;54.302;10.064;2023-06-24T09:59:30;102164.22;;;27.04;38.04
3654;BME280;70277;54.302;10.064;2023-06-24T10:01:57;102151.78;;;26.75;37.52
3654;BME280;70277;54.302;10.064;2023-06-24T10:04:26;102167.28;;;26.76;37.94
3654;BME280;70277;54.302;10.064;2023-06-24T10:06:54;102172.03;;;26.75;38.35
3654;BME280;70277;54.302;10.064;2023-06-24T10:09:21;102166.00;;;26.25;39.61
3654;BME280;70277;54.302;10.064;2023-06-24T10:11:48;102161.91;;;26.22;40.04
3654;BME280;70277;54.302;10.064;2023-06-24T10:14:15;102161.56;;;26.81;38.73
3654;BME280;70277;54.302;10.064;2023-06-24T10:16:42;102159.91;;;26.14;39.41
3654;BME280;70277;54.302;10.064;2023-06-24T10:19:09;102146.69;;;25.80;41.21
3654;BME280;70277;54.302;10.064;2023-06-24T10:21:53;102153.50;;;26.45;39.71
3654;BME280;70277;54.302;10.064;2023-06-24T10:24:32;102146.56;;;27.17;38.96
3654;BME280;70277;54.302;10.064;2023-06-24T10:29:36;102149.59;;;25.75;41.03
3654;BME280;70277;54.302;10.064;2023-06-24T10:32:07;102145.84;;;25.48;41.50
3654;BME280;70277;54.302;10.064;2023-06-24T10:37:14;102141.22;;;25.66;41.45
3654;BME280;70277;54.302;10.064;2023-06-24T10:39:59;102127.72;;;26.53;40.40
3654;BME280;70277;54.302;10.064;2023-06-24T10:42:40;102138.00;;;27.57;38.50
3654;BME280;70277;54.302;10.064;2023-06-24T10:50:12;102142.28;;;26.93;39.68
3654;BME280;70277;54.302;10.064;2023-06-24T10:52:44;102143.97;;;26.37;40.70
3654;BME280;70277;54.302;10.064;2023-06-24T10:55:13;102136.41;;;26.69;40.12
3654;BME280;70277;54.302;10.064;2023-06-24T10:57:39;102137.53;;;26.85;39.80
3654;BME280;70277;54.302;10.064;2023-06-24T11:00:07;102125.97;;;26.83;39.80
3654;BME280;70277;54.302;10.064;2023-06-24T11:02:33;102115.03;;;27.21;39.31
3654;BME280;70277;54.302;10.064;2023-06-24T11:05:01;102115.91;;;27.60;38.61
3654;BME280;70277;54.302;10.064;2023-06-24T11:07:33;102113.19;;;28.58;37.73
3654;BME280;70277;54.302;10.064;2023-06-24T11:12:33;102095.72;;;28.70;36.68
3654;BME280;70277;54.302;10.064;2023-06-24T11:15:02;102104.25;;;28.14;38.00
3654;BME280;70277;54.302;10.064;2023-06-24T11:17:29;102094.25;;;26.67;40.23
3654;BME280;70277;54.302;10.064;2023-06-24T11:19:57;102098.00;;;27.87;38.25
3654;BME280;70277;54.302;10.064;2023-06-24T11:22:24;102102.13;;;28.41;36.95
3654;BME280;70277;54.302;10.064;2023-06-24T11:24:52;102106.16;;;28.94;36.53
3654;BME280;70277;54.302;10.064;2023-06-24T11:27:29;102103.47;;;27.66;37.66
3654;BME280;70277;54.302;10.064;2023-06-24T11:29:59;102106.38;;;29.10;36.65
3654;BME280;70277;54.302;10.064;2023-06-24T11:32:41;102100.44;;;27.89;37.28
3654;BME280;70277;54.302;10.064;2023-06-24T11:35:10;102107.34;;;27.01;39.38
3654;BME280;70277;54.302;10.064;2023-06-24T11:37:37;102098.63;;;27.93;38.14
3654;BME280;70277;54.302;10.064;2023-06-24T11:40:07;102099.94;;;28.55;36.12
3654;BME280;70277;54.302;10.064;2023-06-24T11:42:39;102100.97;;;28.12;37.17
3654;BME280;70277;54.302;10.064;2023-06-24T11:45:08;102102.69;;;29.76;34.17
3654;BME280;70277;54.302;10.064;2023-06-24T11:47:39;102090.97;;;30.31;33.44
3654;BME280;70277;54.302;10.064;2023-06-24T11:50:07;102098.44;;;29.33;34.37
3654;BME280;70277;54.302;10.064;2023-06-24T11:52:44;102104.31;;;28.98;34.31
3654;BME280;70277;54.302;10.064;2023-06-24T11:55:22;102095.41;;;29.25;34.37
3654;BME280;70277;54.302;10.064;2023-06-24T11:58:03;102089.47;;;29.27;33.92
3654;BME280;70277;54.302;10.064;2023-06-24T12:00:37;102097.53;;;28.15;35.85
3654;BME280;70277;54.302;10.064;2023-06-24T12:03:06;102090.97;;;28.20;35.56
3654;BME280;70277;54.302;10.064;2023-06-24T12:05:38;102079.38;;;28.09;35.80
3654;BME280;70277;54.302;10.064;2023-06-24T12:08:10;102086.31;;;27.56;36.82
3654;BME280;70277;54.302;10.064;2023-06-24T12:10:38;102085.75;;;27.80;36.84
3654;BME280;70277;54.302;10.064;2023-06-24T12:13:06;102088.19;;;29.24;34.23
3654;BME280;70277;54.302;10.064;2023-06-24T12:15:34;102091.56;;;29.30;34.05
3654;BME280;70277;54.302;10.064;2023-06-24T12:18:01;102090.41;;;29.64;33.77
3654;BME280;70277;54.302;10.064;2023-06-24T12:20:29;102081.81;;;28.40;35.44
3654;BME280;70277;54.302;10.064;2023-06-24T12:23:02;102092.47;;;29.01;34.71
3654;BME280;70277;54.302;10.064;2023-06-24T12:25:30;102079.81;;;28.20;36.31
3654;BME280;70277;54.302;10.064;2023-06-24T12:27:56;102076.78;;;28.33;36.26
3654;BME280;70277;54.302;10.064;2023-06-24T12:30:23;102079.81;;;28.20;36.63
3654;BME280;70277;54.302;10.064;2023-06-24T12:32:50;102083.66;;;26.77;38.59
3654;BME280;70277;54.302;10.064;2023-06-24T12:35:17;102071.53;;;26.73;39.54
3654;BME280;70277;54.302;10.064;2023-06-24T12:37:44;102069.69;;;27.38;38.59
3654;BME280;70277;54.302;10.064;2023-06-24T12:40:12;102074.81;;;27.19;38.78
3654;BME280;70277;54.302;10.064;2023-06-24T12:42:38;102067.63;;;26.83;39.86
3654;BME280;70277;54.302;10.064;2023-06-24T12:45:05;102065.31;;;26.76;40.08
3654;BME280;70277;54.302;10.064;2023-06-24T12:47:32;102066.09;;;27.76;39.63
3654;BME280;70277;54.302;10.064;2023-06-24T12:49:59;102067.44;;;28.08;38.01
3654;BME280;70277;54.302;10.064;2023-06-24T12:52:26;102060.44;;;28.53;37.57
3654;BME280;70277;54.302;10.064;2023-06-24T12:54:53;102059.22;;;29.87;34.67
3654;BME280;70277;54.302;10.064;2023-06-24T12:57:19;102064.66;;;29.13;35.33
3654;BME280;70277;54.302;10.064;2023-06-24T12:59:46;102067.88;;;29.48;35.23
3654;BME280;70277;54.302;10.064;2023-06-24T13:02:12;102059.44;;;30.31;34.11
3654;BME280;70277;54.302;10.064;2023-06-24T13:04:39;102051.69;;;30.52;33.88
3654;BME280;70277;54.302;10.064;2023-06-24T13:07:05;102054.16;;;30.54;33.28
3654;BME280;70277;54.302;10.064;2023-06-24T13:09:33;102046.50;;;30.14;33.38
3654;BME280;70277;54.302;10.064;2023-06-24T13:12:00;102053.66;;;29.62;34.87
3654;BME280;70277;54.302;10.064;2023-06-24T13:14:26;102060.09;;;29.42;35.01
3654;BME280;70277;54.302;10.064;2023-06-24T13:16:55;102058.59;;;28.99;35.22
3654;BME280;70277;54.302;10.064;2023-06-24T13:19:22;102057.94;;;29.72;34.87